sensor_id;sensor_type;location;lat;lon;timestamp;pressure;altitude;pressure_sealevel;temperature;humidity
62072;BME280;48031;48.542;13.232;2023-04-04T00:02:19;61634.44;;;-142.07;100.00
62072;BME280;48031;48.542;13.232;2023-04-04T00:06:21;61634.44;;;-142.07;100.00
62072;BME280;48031;48.542;13.232;2023-04-04T00:10:23;61634.44;;;-142.07;100.00
62072;BME280;48031;48.542;13.232;2023-04-04T00:14:25;61634.44;;;-142.07;100.00
62072;BME280;48031;48.542;13.232;2023-04-04T00:18:27;61634.44;;;-142.07;100.00
62072;BME280;48031;48.542;13.232;2023-04-04T00:22:29;61634.44;;;-142.07;100.00
62072;BME280;48031;48.542;13.232;2023-04-04T00:26:32;61634.44;;;-142.07;100.00
62072;BME280;48031;48.542;13.232;2023-04-04T00:30:35;61634.44;;;-142.07;100.00
62072;BME280;48031;48.542;13.232;2023-04-04T00:34:38;61634.44;;;-142.07;100.00
62072;BME280;48031;48.542;13.232;2023-04-04T00:38:40;61634.44;;;-142.07;100.00
62072;BME280;48031;48.542;13.232;2023-04-04T00:42:41;61634.44;;;-142.07;100.00
62072;BME280;48031;48.542;13.232;2023-04-04T00:46:43;61634.44;;;-142.07;100.00
62072;BME280;48031;48.542;13.232;2023-04-04T00:50:45;61634.44;;;-142.07;100.00
62072;BME280;48031;48.542;13.232;2023-04-04T00:54:47;61634.44;;;-142.07;100.00
62072;BME280;48031;48.542;13.232;2023-04-04T00:58:49;61634.44;;;-142.07;100.00
62072;BME280;48031;48.542;13.232;2023-04-04T01:02:52;61634.44;;;-142.07;100.00
62072;BME280;48031;48.542;13.232;2023-04-04T01:06:54;61634.44;;;-142.07;100.00
62072;BME280;48031;48.542;13.232;2023-04-04T01:10:57;61634.44;;;-142.07;100.00
62072;BME280;48031;48.542;13.232;2023-04-04T01:14:59;61634.44;;;-142.07;100.00
62072;BME280;48031;48.542;13.232;2023-04-04T01:19:01;61634.44;;;-142.07;100.00
62072;BME280;48031;48.542;13.232;2023-04-04T01:23:06;61634.44;;;-142.07;100.00
62072;BME280;48031;48.542;13.232;2023-04-04T01:27:09;61634.44;;;-142.07;100.00
62072;BME280;48031;48.542;13.232;2023-04-04T01:31:21;61634.44;;;-142.07;100.00
62072;BME280;48031;48.542;13.232;2023-04-04T01:40:01;61634.44;;;-142.07;100.00
62072;BME280;48031;48.542;13.232;2023-04-04T01:44:00;61634.44;;;-142.07;100.00
62072;BME280;48031;48.542;13.232;2023-04-04T01:48:02;61634.44;;;-142.07;100.00
62072;BME280;48031;48.542;13.232;2023-04-04T01:52:04;61634.44;;;-142.07;100.00
62072;BME280;48031;48.542;13.232;2023-04-04T01:56:08;61634.44;;;-142.07;100.00
62072;BME280;48031;48.542;13.232;2023-04-04T02:00:10;61634.44;;;-142.07;100.00
62072;BME280;48031;48.542;13.232;2023-04-04T02:04:18;61634.44;;;-142.07;100.00
62072;BME280;48031;48.542;13.232;2023-04-04T02:08:20;61634.44;;;-142.07;100.00
62072;BME280;48031;48.542;13.232;2023-04-04T02:12:27;61634.44;;;-142.07;100.00
62072;BME280;48031;48.542;13.232;2023-04-04T02:16:29;61634.44;;;-142.07;100.00
62072;BME280;48031;48.542;13.232;2023-04-04T02:20:31;61634.44;;;-142.07;100.00
62072;BME280;48031;48.542;13.232;2023-04-04T02:24:33;61634.44;;;-142.07;100.00
62072;BME280;48031;48.542;13.232;2023-04-04T02:28:35;61634.44;;;-142.07;100.00
62072;BME280;48031;48.542;13.232;2023-04-04T02:32:37;61634.44;;;-142.07;100.00
62072;BME280;48031;48.542;13.232;2023-04-04T02:36:41;61634.44;;;-142.07;100.00
62072;BME280;48031;48.542;13.232;2023-04-04T02:40:46;61634.44;;;-142.07;100.00
62072;BME280;48031;48.542;13.232;2023-04-04T02:44:48;61634.44;;;-142.07;100.00
62072;BME280;48031;48.542;13.232;2023-04-04T02:48:51;61634.44;;;-142.07;100.00
62072;BME280;48031;48.542;13.232;2023-04-04T02:52:58;61634.44;;;-142.07;100.00
62072;BME280;48031;48.542;13.232;2023-04-04T02:57:04;61634.44;;;-142.07;100.00
62072;BME280;48031;48.542;13.232;2023-04-04T03:01:06;61634.44;;;-142.07;100.00
62072;BME280;48031;48.542;13.232;2023-04-04T03:05:11;61634.44;;;-142.07;100.00
62072;BME280;48031;48.542;13.232;2023-04-04T03:09:13;61634.44;;;-142.07;100.00
62072;BME280;48031;48.542;13.232;2023-04-04T03:13:15;61634.44;;;-142.07;100.00
62072;BME280;48031;48.542;13.232;2023-04-04T03:17:18;61634.44;;;-142.07;100.00
62072;BME280;48031;48.542;13.232;2023-04-04T03:21:20;61634.44;;;-142.07;100.00
62072;BME280;48031;48.542;13.232;2023-04-04T03:25:23;61634.44;;;-142.07;100.00
62072;BME280;48031;48.542;13.232;2023-04-04T03:29:25;61634.44;;;-142.07;100.00
62072;BME280;48031;48.542;13.232;2023-04-04T03:33:28;61634.44;;;-142.07;100.00
62072;BME280;48031;48.542;13.232;2023-04-04T03:37:31;61634.44;;;-142.07;100.00
62072;BME280;48031;48.542;13.232;2023-04-04T03:41:34;61634.44;;;-142.07;100.00
62072;BME280;48031;48.542;13.232;2023-04-04T03:45:36;61634.44;;;-142.07;100.00
62072;BME280;48031;48.542;13.232;2023-04-04T03:49:40;61634.44;;;-142.07;100.00
62072;BME280;48031;48.542;13.232;2023-04-04T03:53:43;61634.44;;;-142.07;100.00
62072;BME280;48031;48.542;13.232;2023-04-04T03:57:45;61634.44;;;-142.07;100.00
62072;BME280;48031;48.542;13.232;2023-04-04T04:01:50;61634.44;;;-142.07;100.00
62072;BME280;48031;48.542;13.232;2023-04-04T04:05:52;61634.44;;;-142.07;100.00
62072;BME280;48031;48.542;13.232;2023-04-04T04:09:56;61634.44;;;-142.07;100.00
62072;BME280;48031;48.542;13.232;2023-04-04T04:13:58;61634.44;;;-142.07;100.00
62072;BME280;48031;48.542;13.232;2023-04-04T04:18:01;61634.44;;;-142.07;100.00
62072;BME280;48031;48.542;13.232;2023-04-04T04:22:04;61634.44;;;-142.07;100.00
62072;BME280;48031;48.542;13.232;2023-04-04T04:26:07;61634.44;;;-142.07;100.00
62072;BME280;48031;48.542;13.232;2023-04-04T04:30:09;61634.44;;;-142.07;100.00
62072;BME280;48031;48.542;13.232;2023-04-04T04:34:14;61634.44;;;-142.07;100.00
62072;BME280;48031;48.542;13.232;2023-04-04T04:38:17;61634.44;;;-142.07;100.00
62072;BME280;48031;48.542;13.232;2023-04-04T04:42:21;61634.44;;;-142.07;100.00
62072;BME280;48031;48.542;13.232;2023-04-04T04:46:28;61634.44;;;-142.07;100.00
62072;BME280;48031;48.542;13.232;2023-04-04T04:50:31;61634.44;;;-142.07;100.00
62072;BME280;48031;48.542;13.232;2023-04-04T04:54:34;61634.44;;;-142.07;100.00
62072;BME280;48031;48.542;13.232;2023-04-04T04:58:35;61634.44;;;-142.07;100.00
62072;BME280;48031;48.542;13.232;2023-04-04T05:02:41;61634.44;;;-142.07;100.00
62072;BME280;48031;48.542;13.232;2023-04-04T05:06:45;61634.44;;;-142.07;100.00
62072;BME280;48031;48.542;13.232;2023-04-04T05:10:48;61634.44;;;-142.07;100.00
62072;BME280;48031;48.542;13.232;2023-04-04T05:14:52;61634.44;;;-142.07;100.00
62072;BME280;48031;48.542;13.232;2023-04-04T05:18:54;61634.44;;;-142.07;100.00
62072;BME280;48031;48.542;13.232;2023-04-04T05:22:57;61634.44;;;-142.07;100.00
62072;BME280;48031;48.542;13.232;2023-04-04T05:27:06;61634.44;;;-142.07;100.00
62072;BME280;48031;48.542;13.232;2023-04-04T05:31:14;61634.44;;;-142.07;100.00
62072;BME280;48031;48.542;13.232;2023-04-04T05:35:16;61634.44;;;-142.07;100.00
62072;BME280;48031;48.542;13.232;2023-04-04T05:39:18;61634.44;;;-142.07;100.00
62072;BME280;48031;48.542;13.232;2023-04-04T05:43:32;61634.44;;;-142.07;100.00
62072;BME280;48031;48.542;13.232;2023-04-04T05:47:42;61634.44;;;-142.07;100.00
62072;BME280;48031;48.542;13.232;2023-04-04T05:51:44;61634.44;;;-142.07;100.00
62072;BME280;48031;48.542;13.232;2023-04-04T05:55:52;61634.44;;;-142.07;100.00
62072;BME280;48031;48.542;13.232;2023-04-04T05:59:57;61634.44;;;-142.07;100.00
62072;BME280;48031;48.542;13.232;2023-04-04T06:03:59;61634.44;;;-142.07;100.00
62072;BME280;48031;48.542;13.232;2023-04-04T06:08:02;61634.44;;;-142.07;100.00
62072;BME280;48031;48.542;13.232;2023-04-04T06:12:04;61634.44;;;-142.07;100.00
62072;BME280;48031;48.542;13.232;2023-04-04T06:16:08;61634.44;;;-142.07;100.00
62072;BME280;48031;48.542;13.232;2023-04-04T06:20:10;61634.44;;;-142.07;100.00
62072;BME280;48031;48.542;13.232;2023-04-04T06:24:12;61634.44;;;-142.07;100.00
62072;BME280;48031;48.542;13.232;2023-04-04T06:28:14;61634.44;;;-142.07;100.00
62072;BME280;48031;48.542;13.232;2023-04-04T06:32:20;61634.44;;;-142.07;100.00
62072;BME280;48031;48.542;13.232;2023-04-04T06:36:23;61634.44;;;-142.07;100.00
62072;BME280;48031;48.542;13.232;2023-04-04T06:40:26;61634.44;;;-142.07;100.00
62072;BME280;48031;48.542;13.232;2023-04-04T06:44:28;61634.44;;;-142.07;100.00
62072;BME280;48031;48.542;13.232;2023-04-04T06:48:30;61634.44;;;-142.07;100.00
62072;BME280;48031;48.542;13.232;2023-04-04T06:52:32;61634.44;;;-142.07;100.00
62072;BME280;48031;48.542;13.232;2023-04-04T06:56:36;61634.44;;;-142.07;100.00
62072;BME280;48031;48.542;13.232;2023-04-04T07:00:38;61634.44;;;-142.07;100.00
62072;BME280;48031;48.542;13.232;2023-04-04T07:04:40;61634.44;;;-142.07;100.00
62072;BME280;48031;48.542;13.232;2023-04-04T07:08:43;61634.44;;;-142.07;100.00
62072;BME280;48031;48.542;13.232;2023-04-04T07:12:45;61634.44;;;-142.07;100.00
62072;BME280;48031;48.542;13.232;2023-04-04T07:16:46;61634.44;;;-142.07;100.00
62072;BME280;48031;48.542;13.232;2023-04-04T07:20:48;61634.44;;;-142.07;100.00
62072;BME280;48031;48.542;13.232;2023-04-04T07:24:50;61634.44;;;-142.07;100.00
62072;BME280;48031;48.542;13.232;2023-04-04T07:28:52;61634.44;;;-142.07;100.00
62072;BME280;48031;48.542;13.232;2023-04-04T07:32:58;61634.44;;;-142.07;100.00
62072;BME280;48031;48.542;13.232;2023-04-04T07:37:00;61634.44;;;-142.07;100.00
62072;BME280;48031;48.542;13.232;2023-04-04T07:41:02;61634.44;;;-142.07;100.00
62072;BME280;48031;48.542;13.232;2023-04-04T07:45:05;61634.44;;;-142.07;100.00
62072;BME280;48031;48.542;13.232;2023-04-04T07:49:07;61634.44;;;-142.07;100.00
62072;BME280;48031;48.542;13.232;2023-04-04T07:53:09;61634.44;;;-142.07;100.00
62072;BME280;48031;48.542;13.232;2023-04-04T07:57:11;61634.44;;;-142.07;100.00
62072;BME280;48031;48.542;13.232;2023-04-04T08:01:13;61634.44;;;-142.07;100.00
62072;BME280;48031;48.542;13.232;2023-04-04T08:05:14;61634.44;;;-142.07;100.00
62072;BME280;48031;48.542;13.232;2023-04-04T08:09:16;61634.44;;;-142.07;100.00
62072;BME280;48031;48.542;13.232;2023-04-04T08:13:18;61634.44;;;-142.07;100.00
62072;BME280;48031;48.542;13.232;2023-04-04T08:17:20;61634.44;;;-142.07;100.00
62072;BME280;48031;48.542;13.232;2023-04-04T08:21:22;61634.44;;;-142.07;100.00
62072;BME280;48031;48.542;13.232;2023-04-04T08:25:24;61634.44;;;-142.07;100.00
62072;BME280;48031;48.542;13.232;2023-04-04T08:29:26;61634.44;;;-142.07;100.00
62072;BME280;48031;48.542;13.232;2023-04-04T08:33:29;61634.44;;;-142.07;100.00
62072;BME280;48031;48.542;13.232;2023-04-04T08:37:47;61634.44;;;-142.07;100.00
62072;BME280;48031;48.542;13.232;2023-04-04T08:41:56;61634.44;;;-142.07;100.00
62072;BME280;48031;48.542;13.232;2023-04-04T08:46:02;61634.44;;;-142.07;100.00
62072;BME280;48031;48.542;13.232;2023-04-04T08:50:05;61634.44;;;-142.07;100.00
62072;BME280;48031;48.542;13.232;2023-04-04T08:54:08;61634.44;;;-142.07;100.00
62072;BME280;48031;48.542;13.232;2023-04-04T08:58:09;61634.44;;;-142.07;100.00
62072;BME280;48031;48.542;13.232;2023-04-04T09:02:32;61634.44;;;-142.07;100.00
62072;BME280;48031;48.542;13.232;2023-04-04T09:06:35;61634.44;;;-142.07;100.00
62072;BME280;48031;48.542;13.232;2023-04-04T09:10:39;61634.44;;;-142.07;100.00
62072;BME280;48031;48.542;13.232;2023-04-04T09:14:46;61634.44;;;-142.07;100.00
62072;BME280;48031;48.542;13.232;2023-04-04T09:18:48;61634.44;;;-142.07;100.00
62072;BME280;48031;48.542;13.232;2023-04-04T09:22:50;61634.44;;;-142.07;100.00
62072;BME280;48031;48.542;13.232;2023-04-04T09:26:52;61634.44;;;-142.07;100.00
62072;BME280;48031;48.542;13.232;2023-04-04T09:30:54;61634.44;;;-142.07;100.00
62072;BME280;48031;48.542;13.232;2023-04-04T09:34:56;61634.44;;;-142.07;100.00
62072;BME280;48031;48.542;13.232;2023-04-04T09:38:58;61634.44;;;-142.07;100.00
62072;BME280;48031;48.542;13.232;2023-04-04T09:43:01;61634.44;;;-142.07;100.00
62072;BME280;48031;48.542;13.232;2023-04-04T09:47:26;61634.44;;;-142.07;100.00
62072;BME280;48031;48.542;13.232;2023-04-04T09:51:34;61634.44;;;-142.07;100.00
62072;BME280;48031;48.542;13.232;2023-04-04T09:55:36;61634.44;;;-142.07;100.00
62072;BME280;48031;48.542;13.232;2023-04-04T09:59:39;61634.44;;;-142.07;100.00
62072;BME280;48031;48.542;13.232;2023-04-04T10:03:41;61634.44;;;-142.07;100.00
62072;BME280;48031;48.542;13.232;2023-04-04T10:07:44;61634.44;;;-142.07;100.00
62072;BME280;48031;48.542;13.232;2023-04-04T10:11:47;61634.44;;;-142.07;100.00
62072;BME280;48031;48.542;13.232;2023-04-04T10:15:54;61634.44;;;-142.07;100.00
62072;BME280;48031;48.542;13.232;2023-04-04T10:19:59;61634.44;;;-142.07;100.00
62072;BME280;48031;48.542;13.232;2023-04-04T10:24:05;61634.44;;;-142.07;100.00
62072;BME280;48031;48.542;13.232;2023-04-04T10:28:11;61634.44;;;-142.07;100.00
62072;BME280;48031;48.542;13.232;2023-04-04T10:32:17;61634.44;;;-142.07;100.00
62072;BME280;48031;48.542;13.232;2023-04-04T10:36:23;61634.44;;;-142.07;100.00
62072;BME280;48031;48.542;13.232;2023-04-04T10:40:29;61634.44;;;-142.07;100.00
62072;BME280;48031;48.542;13.232;2023-04-04T10:44:39;61634.44;;;-142.07;100.00
62072;BME280;48031;48.542;13.232;2023-04-04T10:48:42;61634.44;;;-142.07;100.00
62072;BME280;48031;48.542;13.232;2023-04-04T10:52:44;61634.44;;;-142.07;100.00
62072;BME280;48031;48.542;13.232;2023-04-04T10:56:47;61634.44;;;-142.07;100.00
62072;BME280;48031;48.542;13.232;2023-04-04T11:00:51;61634.44;;;-142.07;100.00
62072;BME280;48031;48.542;13.232;2023-04-04T11:05:09;61634.44;;;-142.07;100.00
62072;BME280;48031;48.542;13.232;2023-04-04T11:09:11;61634.44;;;-142.07;100.00
62072;BME280;48031;48.542;13.232;2023-04-04T11:13:24;61634.44;;;-142.07;100.00
62072;BME280;48031;48.542;13.232;2023-04-04T11:21:49;61634.44;;;-142.07;100.00
62072;BME280;48031;48.542;13.232;2023-04-04T11:25:55;61634.44;;;-142.07;100.00
62072;BME280;48031;48.542;13.232;2023-04-04T11:29:57;61634.44;;;-142.07;100.00
62072;BME280;48031;48.542;13.232;2023-04-04T11:34:12;61634.44;;;-142.07;100.00
62072;BME280;48031;48.542;13.232;2023-04-04T11:38:15;61634.44;;;-142.07;100.00
62072;BME280;48031;48.542;13.232;2023-04-04T11:42:19;61634.44;;;-142.07;100.00
62072;BME280;48031;48.542;13.232;2023-04-04T11:46:22;61634.44;;;-142.07;100.00
62072;BME280;48031;48.542;13.232;2023-04-04T11:50:24;61634.44;;;-142.07;100.00
62072;BME280;48031;48.542;13.232;2023-04-04T11:54:28;61634.44;;;-142.07;100.00
62072;BME280;48031;48.542;13.232;2023-04-04T11:58:34;61634.44;;;-142.07;100.00
62072;BME280;48031;48.542;13.232;2023-04-04T12:02:37;61634.44;;;-142.07;100.00
62072;BME280;48031;48.542;13.232;2023-04-04T12:06:41;61634.44;;;-142.07;100.00
62072;BME280;48031;48.542;13.232;2023-04-04T12:10:43;61634.44;;;-142.07;100.00
62072;BME280;48031;48.542;13.232;2023-04-04T12:14:45;61634.44;;;-142.07;100.00
62072;BME280;48031;48.542;13.232;2023-04-04T12:18:48;61634.44;;;-142.07;100.00
62072;BME280;48031;48.542;13.232;2023-04-04T12:22:51;61634.44;;;-142.07;100.00
62072;BME280;48031;48.542;13.232;2023-04-04T12:26:53;61634.44;;;-142.07;100.00
62072;BME280;48031;48.542;13.232;2023-04-04T12:30:55;61634.44;;;-142.07;100.00
62072;BME280;48031;48.542;13.232;2023-04-04T12:35:00;61634.44;;;-142.07;100.00
62072;BME280;48031;48.542;13.232;2023-04-04T12:39:08;61634.44;;;-142.07;100.00
62072;BME280;48031;48.542;13.232;2023-04-04T12:43:16;61634.44;;;-142.07;100.00
62072;BME280;48031;48.542;13.232;2023-04-04T12:47:18;61634.44;;;-142.07;100.00
62072;BME280;48031;48.542;13.232;2023-04-04T12:51:29;61634.44;;;-142.07;100.00
62072;BME280;48031;48.542;13.232;2023-04-04T12:55:31;61634.44;;;-142.07;100.00
62072;BME280;48031;48.542;13.232;2023-04-04T12:59:34;61634.44;;;-142.07;100.00
62072;BME280;48031;48.542;13.232;2023-04-04T13:03:37;61634.44;;;-142.07;100.00
62072;BME280;48031;48.542;13.232;2023-04-04T13:07:39;61634.44;;;-142.07;100.00
62072;BME280;48031;48.542;13.232;2023-04-04T13:11:58;61634.44;;;-142.07;100.00
62072;BME280;48031;48.542;13.232;2023-04-04T13:16:03;61634.44;;;-142.07;100.00
62072;BME280;48031;48.542;13.232;2023-04-04T13:20:06;61634.44;;;-142.07;100.00
62072;BME280;48031;48.542;13.232;2023-04-04T13:24:08;61634.44;;;-142.07;100.00
62072;BME280;48031;48.542;13.232;2023-04-04T13:28:10;61634.44;;;-142.07;100.00
62072;BME280;48031;48.542;13.232;2023-04-04T13:32:12;61634.44;;;-142.07;100.00
62072;BME280;48031;48.542;13.232;2023-04-04T13:36:14;61634.44;;;-142.07;100.00
62072;BME280;48031;48.542;13.232;2023-04-04T13:40:16;61634.44;;;-142.07;100.00
62072;BME280;48031;48.542;13.232;2023-04-04T13:44:18;61634.44;;;-142.07;100.00
62072;BME280;48031;48.542;13.232;2023-04-04T13:48:20;61634.44;;;-142.07;100.00
62072;BME280;48031;48.542;13.232;2023-04-04T13:52:21;61634.44;;;-142.07;100.00
62072;BME280;48031;48.542;13.232;2023-04-04T13:56:24;61634.44;;;-142.07;100.00
62072;BME280;48031;48.542;13.232;2023-04-04T14:00:26;61634.44;;;-142.07;100.00
62072;BME280;48031;48.542;13.232;2023-04-04T14:04:28;61634.44;;;-142.07;100.00
62072;BME280;48031;48.542;13.232;2023-04-04T14:08:30;61634.44;;;-142.07;100.00
62072;BME280;48031;48.542;13.232;2023-04-04T14:12:34;61634.44;;;-142.07;100.00
62072;BME280;48031;48.542;13.232;2023-04-04T14:16:36;61634.44;;;-142.07;100.00
62072;BME280;48031;48.542;13.232;2023-04-04T14:20:38;61634.44;;;-142.07;100.00
62072;BME280;48031;48.542;13.232;2023-04-04T14:24:40;61634.44;;;-142.07;100.00
62072;BME280;48031;48.542;13.232;2023-04-04T14:28:41;61634.44;;;-142.07;100.00
62072;BME280;48031;48.542;13.232;2023-04-04T14:32:43;61634.44;;;-142.07;100.00
62072;BME280;48031;48.542;13.232;2023-04-04T14:36:47;61634.44;;;-142.07;100.00
62072;BME280;48031;48.542;13.232;2023-04-04T14:40:49;61634.44;;;-142.07;100.00
62072;BME280;48031;48.542;13.232;2023-04-04T14:44:50;61634.44;;;-142.07;100.00
62072;BME280;48031;48.542;13.232;2023-04-04T14:48:52;61634.44;;;-142.07;100.00
62072;BME280;48031;48.542;13.232;2023-04-04T14:52:54;61634.44;;;-142.07;100.00
62072;BME280;48031;48.542;13.232;2023-04-04T14:56:57;61634.44;;;-142.07;100.00
62072;BME280;48031;48.542;13.232;2023-04-04T15:00:59;61634.44;;;-142.07;100.00
62072;BME280;48031;48.542;13.232;2023-04-04T15:05:02;61634.44;;;-142.07;100.00
62072;BME280;48031;48.542;13.232;2023-04-04T15:09:07;61634.44;;;-142.07;100.00
62072;BME280;48031;48.542;13.232;2023-04-04T15:13:10;61634.44;;;-142.07;100.00
62072;BME280;48031;48.542;13.232;2023-04-04T15:17:11;61634.44;;;-142.07;100.00
62072;BME280;48031;48.542;13.232;2023-04-04T15:21:13;61634.44;;;-142.07;100.00
62072;BME280;48031;48.542;13.232;2023-04-04T15:25:15;61634.44;;;-142.07;100.00
62072;BME280;48031;48.542;13.232;2023-04-04T15:29:17;61634.44;;;-142.07;100.00
62072;BME280;48031;48.542;13.232;2023-04-04T15:33:18;61634.44;;;-142.07;100.00
62072;BME280;48031;48.542;13.232;2023-04-04T15:37:20;61634.44;;;-142.07;100.00
62072;BME280;48031;48.542;13.232;2023-04-04T15:41:22;61634.44;;;-142.07;100.00
62072;BME280;48031;48.542;13.232;2023-04-04T15:45:24;61634.44;;;-142.07;100.00
62072;BME280;48031;48.542;13.232;2023-04-04T15:49:27;61634.44;;;-142.07;100.00
62072;BME280;48031;48.542;13.232;2023-04-04T15:53:38;97781.41;;;20.76;16.17
62072;BME280;48031;48.542;13.232;2023-04-04T15:57:40;97783.97;;;19.16;17.16
62072;BME280;48031;48.542;13.232;2023-04-04T16:01:45;97778.81;;;19.65;16.50
62072;BME280;48031;48.542;13.232;2023-04-04T16:05:47;97788.53;;;19.76;17.41
62072;BME280;48031;48.542;13.232;2023-04-04T16:09:49;97788.25;;;18.65;18.19
62072;BME280;48031;48.542;13.232;2023-04-04T16:13:51;97785.38;;;19.32;17.50
62072;BME280;48031;48.542;13.232;2023-04-04T16:17:53;97780.16;;;19.30;17.54
62072;BME280;48031;48.542;13.232;2023-04-04T16:21:59;97789.16;;;18.08;19.02
62072;BME280;48031;48.542;13.232;2023-04-04T16:26:01;97789.59;;;18.20;18.43
62072;BME280;48031;48.542;13.232;2023-04-04T16:30:03;97792.28;;;17.68;19.29
62072;BME280;48031;48.542;13.232;2023-04-04T16:34:05;97768.88;;;18.52;19.65
62072;BME280;48031;48.542;13.232;2023-04-04T16:38:07;97776.84;;;18.77;18.82
62072;BME280;48031;48.542;13.232;2023-04-04T16:42:09;97774.22;;;19.61;17.92
62072;BME280;48031;48.542;13.232;2023-04-04T16:46:11;97777.78;;;18.20;19.03
62072;BME280;48031;48.542;13.232;2023-04-04T16:50:13;97773.34;;;19.09;19.00
62072;BME280;48031;48.542;13.232;2023-04-04T16:54:15;97769.94;;;17.45;19.53
62072;BME280;48031;48.542;13.232;2023-04-04T16:58:17;97770.97;;;17.60;20.07
62072;BME280;48031;48.542;13.232;2023-04-04T17:02:19;97760.13;;;17.73;19.44
62072;BME280;48031;48.542;13.232;2023-04-04T17:06:20;97773.13;;;17.92;19.95
62072;BME280;48031;48.542;13.232;2023-04-04T17:10:22;97760.34;;;18.06;20.31
62072;BME280;48031;48.542;13.232;2023-04-04T17:14:24;97771.94;;;18.26;19.82
62072;BME280;48031;48.542;13.232;2023-04-04T17:18:26;97765.50;;;17.83;19.67
62072;BME280;48031;48.542;13.232;2023-04-04T17:22:30;97757.03;;;17.80;19.98
62072;BME280;48031;48.542;13.232;2023-04-04T17:26:32;97753.75;;;19.29;18.85
62072;BME280;48031;48.542;13.232;2023-04-04T17:30:34;97752.66;;;18.50;19.67
62072;BME280;48031;48.542;13.232;2023-04-04T17:34:35;97754.06;;;18.00;19.92
62072;BME280;48031;48.542;13.232;2023-04-04T17:38:37;97757.59;;;18.06;19.69
62072;BME280;48031;48.542;13.232;2023-04-04T17:42:42;97752.28;;;18.14;19.91
62072;BME280;48031;48.542;13.232;2023-04-04T17:46:44;97763.09;;;16.65;21.35
62072;BME280;48031;48.542;13.232;2023-04-04T17:50:48;97756.66;;;17.92;20.52
62072;BME280;48031;48.542;13.232;2023-04-04T17:54:50;97754.94;;;17.72;20.69
62072;BME280;48031;48.542;13.232;2023-04-04T17:58:54;97767.09;;;17.56;21.00
62072;BME280;48031;48.542;13.232;2023-04-04T18:02:56;97764.75;;;17.44;21.75
62072;BME280;48031;48.542;13.232;2023-04-04T18:06:57;97765.91;;;18.48;20.98
62072;BME280;48031;48.542;13.232;2023-04-04T18:10:59;97759.88;;;17.99;20.28
62072;BME280;48031;48.542;13.232;2023-04-04T18:15:02;97766.47;;;17.98;20.70
62072;BME280;48031;48.542;13.232;2023-04-04T18:19:04;97771.50;;;17.57;21.01
62072;BME280;48031;48.542;13.232;2023-04-04T18:23:06;97774.97;;;17.33;21.57
62072;BME280;48031;48.542;13.232;2023-04-04T18:27:09;97771.44;;;17.67;21.71
62072;BME280;48031;48.542;13.232;2023-04-04T18:31:11;97773.66;;;18.89;20.87
62072;BME280;48031;48.542;13.232;2023-04-04T18:35:13;97772.78;;;18.46;20.81
62072;BME280;48031;48.542;13.232;2023-04-04T18:39:15;97778.66;;;18.15;21.48
62072;BME280;48031;48.542;13.232;2023-04-04T18:43:19;97784.38;;;18.43;21.69
62072;BME280;48031;48.542;13.232;2023-04-04T18:47:20;97794.47;;;18.23;20.40
62072;BME280;48031;48.542;13.232;2023-04-04T18:51:22;97787.81;;;18.06;20.10
62072;BME280;48031;48.542;13.232;2023-04-04T18:55:24;97794.00;;;17.59;19.60
62072;BME280;48031;48.542;13.232;2023-04-04T18:59:26;97792.94;;;17.55;19.90
62072;BME280;48031;48.542;13.232;2023-04-04T19:03:35;97788.00;;;18.14;19.58
62072;BME280;48031;48.542;13.232;2023-04-04T19:07:40;97799.47;;;17.64;19.36
62072;BME280;48031;48.542;13.232;2023-04-04T19:11:43;97792.56;;;17.71;19.15
62072;BME280;48031;48.542;13.232;2023-04-04T19:15:46;97798.81;;;17.43;20.09
62072;BME280;48031;48.542;13.232;2023-04-04T19:19:47;97800.47;;;17.73;19.72
62072;BME280;48031;48.542;13.232;2023-04-04T19:23:49;97808.03;;;17.52;20.92
62072;BME280;48031;48.542;13.232;2023-04-04T19:27:51;97803.50;;;17.76;20.35
62072;BME280;48031;48.542;13.232;2023-04-04T19:31:53;97798.09;;;17.61;20.27
62072;BME280;48031;48.542;13.232;2023-04-04T19:40:13;97804.38;;;17.96;20.05
62072;BME280;48031;48.542;13.232;2023-04-04T19:44:19;97807.16;;;17.62;20.44
62072;BME280;48031;48.542;13.232;2023-04-04T19:48:40;97801.25;;;18.07;20.67
62072;BME280;48031;48.542;13.232;2023-04-04T19:52:45;97808.03;;;17.52;20.01
62072;BME280;48031;48.542;13.232;2023-04-04T19:56:48;97800.03;;;17.56;19.99
62072;BME280;48031;48.542;13.232;2023-04-04T20:00:50;97797.75;;;16.95;20.91
62072;BME280;48031;48.542;13.232;2023-04-04T20:04:52;97799.28;;;17.11;20.75
62072;BME280;48031;48.542;13.232;2023-04-04T20:08:56;97796.84;;;17.10;21.24
62072;BME280;48031;48.542;13.232;2023-04-04T20:12:58;97804.25;;;17.09;21.32
62072;BME280;48031;48.542;13.232;2023-04-04T20:17:00;97804.66;;;17.31;20.43
62072;BME280;48031;48.542;13.232;2023-04-04T20:25:39;97803.16;;;17.83;20.50
62072;BME280;48031;48.542;13.232;2023-04-04T20:29:42;97795.50;;;17.02;21.15
62072;BME280;48031;48.542;13.232;2023-04-04T20:33:44;97802.13;;;16.96;20.84
62072;BME280;48031;48.542;13.232;2023-04-04T20:37:46;97810.63;;;16.30;21.75
62072;BME280;48031;48.542;13.232;2023-04-04T20:41:48;97808.47;;;16.07;22.27
62072;BME280;48031;48.542;13.232;2023-04-04T20:45:52;97813.69;;;16.08;21.95
62072;BME280;48031;48.542;13.232;2023-04-04T20:49:53;97814.56;;;15.73;23.19
62072;BME280;48031;48.542;13.232;2023-04-04T20:53:58;97810.59;;;16.35;21.75